createdAt,value
2022-12-19T00:00:50.336Z,28.80
2022-12-19T00:03:28.129Z,32.20
2022-12-19T00:06:03.312Z,27.00
2022-12-19T00:08:34.015Z,24.20
2022-12-19T00:11:04.441Z,22.50
2022-12-19T00:13:40.315Z,23.90
2022-12-19T00:16:17.773Z,25.50
2022-12-19T00:18:54.798Z,23.50
2022-12-19T00:21:35.197Z,49.60
2022-12-19T00:24:20.628Z,28.20
2022-12-19T00:26:50.737Z,26.40
2022-12-19T00:29:21.100Z,26.50
2022-12-19T00:31:51.358Z,24.80
2022-12-19T00:34:21.213Z,25.40
2022-12-19T00:36:51.077Z,24.80
2022-12-19T00:39:21.119Z,25.60
2022-12-19T00:41:51.288Z,24.20
2022-12-19T00:44:21.229Z,25.90
2022-12-19T00:46:53.004Z,26.70
2022-12-19T00:49:22.676Z,28.80
2022-12-19T00:51:52.852Z,27.50
2022-12-19T00:54:22.989Z,30.60
2022-12-19T00:56:54.308Z,29.70
2022-12-19T00:59:26.683Z,26.70
2022-12-19T01:01:59.850Z,27.40
2022-12-19T01:04:29.850Z,27.10
2022-12-19T01:07:02.464Z,30.00
2022-12-19T01:09:37.283Z,29.30
2022-12-19T01:12:27.305Z,26.00
2022-12-19T01:15:03.985Z,37.00
2022-12-19T01:17:37.759Z,32.90
2022-12-19T01:20:26.661Z,37.80
2022-12-19T01:23:00.880Z,36.70
2022-12-19T01:25:31.316Z,38.00
2022-12-19T01:28:01.810Z,68.70
2022-12-19T01:30:35.572Z,49.70
2022-12-19T01:33:12.895Z,41.20
2022-12-19T01:35:43.863Z,46.10
2022-12-19T01:38:15.596Z,35.70
2022-12-19T01:41:11.637Z,30.80
2022-12-19T01:44:00.900Z,29.20
2022-12-19T01:46:38.200Z,29.80
2022-12-19T01:49:30.617Z,27.10
2022-12-19T01:52:13.509Z,4.40
2022-12-19T01:54:54.239Z,31.30
2022-12-19T01:57:24.275Z,32.00
2022-12-19T02:00:00.094Z,33.20
2022-12-19T02:02:38.268Z,40.30
2022-12-19T02:05:10.421Z,35.10
2022-12-19T02:07:41.621Z,27.80
2022-12-19T02:10:12.083Z,33.10
2022-12-19T02:12:44.869Z,30.30
2022-12-19T02:15:17.573Z,28.00
2022-12-19T02:18:16.452Z,28.20
2022-12-19T02:21:21.904Z,31.00
2022-12-19T02:24:21.060Z,29.20
2022-12-19T02:27:23.122Z,28.00
2022-12-19T02:30:12.203Z,26.80
2022-12-19T02:32:57.518Z,30.20
2022-12-19T02:35:42.481Z,26.80
2022-12-19T02:39:01.989Z,32.50
2022-12-19T02:41:55.494Z,28.10
2022-12-19T02:44:32.243Z,29.60
2022-12-19T02:47:06.119Z,30.40
2022-12-19T02:49:38.469Z,26.80
2022-12-19T02:52:21.951Z,28.20
2022-12-19T02:55:01.043Z,30.30
2022-12-19T02:57:39.969Z,26.40
2022-12-19T03:00:15.040Z,28.00
2022-12-19T03:03:16.517Z,28.20
2022-12-19T03:06:04.775Z,29.20
2022-12-19T03:08:56.735Z,26.90
2022-12-19T03:11:32.152Z,31.10
2022-12-19T03:14:22.819Z,29.00
2022-12-19T03:16:57.342Z,30.60
2022-12-19T03:19:27.548Z,32.40
2022-12-19T03:21:57.980Z,31.50
2022-12-19T03:24:27.727Z,35.00
2022-12-19T03:27:23.153Z,34.00
2022-12-19T03:30:04.055Z,46.20
2022-12-19T03:32:39.488Z,36.60
2022-12-19T03:35:18.506Z,35.20
2022-12-19T03:37:53.279Z,32.20
2022-12-19T03:40:26.580Z,32.30
2022-12-19T03:43:12.694Z,32.80
2022-12-19T03:46:26.440Z,31.30
2022-12-19T03:48:57.552Z,32.20
2022-12-19T03:51:49.205Z,57.10
2022-12-19T03:54:21.311Z,31.20
2022-12-19T03:57:18.542Z,30.10
2022-12-19T03:59:54.447Z,32.90
2022-12-19T04:02:25.526Z,30.50
2022-12-19T04:05:03.589Z,44.20
2022-12-19T04:07:34.488Z,30.10
2022-12-19T04:10:12.231Z,32.00
2022-12-19T04:12:53.154Z,29.50
2022-12-19T04:15:42.599Z,30.30
2022-12-19T04:18:14.320Z,28.40
2022-12-19T04:20:51.902Z,29.30
2022-12-19T04:23:36.253Z,32.60
2022-12-19T04:26:08.455Z,36.80
2022-12-19T04:28:55.998Z,38.80
2022-12-19T04:31:26.155Z,47.10
2022-12-19T04:33:56.232Z,10.80
2022-12-19T04:36:27.222Z,48.00
2022-12-19T04:38:56.012Z,37.80
2022-12-19T04:41:26.386Z,42.90
2022-12-19T04:43:56.272Z,37.00
2022-12-19T04:46:26.390Z,43.40
2022-12-19T04:48:56.361Z,46.60
2022-12-19T04:51:26.455Z,43.00
2022-12-19T04:53:56.446Z,47.00
2022-12-19T04:56:26.360Z,50.00
2022-12-19T04:59:00.311Z,45.90
2022-12-19T05:01:30.646Z,59.90
2022-12-19T05:04:04.386Z,52.50
2022-12-19T05:06:35.557Z,51.80
2022-12-19T05:09:06.053Z,52.50
2022-12-19T05:11:36.249Z,48.90
2022-12-19T05:14:06.519Z,35.90
2022-12-19T05:16:36.815Z,30.90
2022-12-19T05:19:07.106Z,32.80
2022-12-19T05:21:37.674Z,37.40
2022-12-19T05:24:08.244Z,42.30
2022-12-19T05:26:37.022Z,38.30
2022-12-19T05:29:09.057Z,35.90
2022-12-19T05:31:39.483Z,37.80
2022-12-19T05:34:09.985Z,39.20
2022-12-19T05:36:40.234Z,37.80
2022-12-19T05:39:09.997Z,51.10
2022-12-19T05:41:39.906Z,49.20
2022-12-19T05:44:10.741Z,63.70
2022-12-19T05:46:41.043Z,61.00
2022-12-19T05:49:11.556Z,73.90
2022-12-19T05:51:41.852Z,80.60
2022-12-19T05:54:12.271Z,76.90
2022-12-19T05:56:42.453Z,21.00
2022-12-19T05:59:14.562Z,70.20
2022-12-19T06:01:44.607Z,75.30
2022-12-19T06:04:14.674Z,64.10
2022-12-19T06:06:45.028Z,63.50
2022-12-19T06:09:15.234Z,62.40
2022-12-19T06:11:44.964Z,79.70
2022-12-19T06:14:16.223Z,92.40
2022-12-19T06:16:46.123Z,62.30
2022-12-19T06:19:15.499Z,67.50
2022-12-19T06:21:48.431Z,63.00
2022-12-19T06:24:18.899Z,62.00
2022-12-19T06:26:48.851Z,63.60
2022-12-19T06:29:18.242Z,64.80
2022-12-19T06:31:47.211Z,65.70
2022-12-19T06:34:33.280Z,67.30
2022-12-19T06:37:08.558Z,65.90
2022-12-19T06:39:39.168Z,75.40
2022-12-19T06:42:28.420Z,84.80
2022-12-19T06:44:58.687Z,66.00
2022-12-19T06:47:29.162Z,61.50
2022-12-19T06:50:00.085Z,59.10
2022-12-19T06:52:30.492Z,64.50
2022-12-19T06:55:01.284Z,63.30
2022-12-19T06:57:31.614Z,59.60
2022-12-19T07:00:01.209Z,57.60
2022-12-19T07:02:33.242Z,57.90
2022-12-19T07:05:09.503Z,56.20
2022-12-19T07:07:39.844Z,60.30
2022-12-19T07:10:09.875Z,62.40
2022-12-19T07:12:40.083Z,59.90
2022-12-19T07:15:10.870Z,61.60
2022-12-19T07:17:41.513Z,58.80
2022-12-19T07:20:12.866Z,58.00
2022-12-19T07:22:44.825Z,58.60
2022-12-19T07:25:15.349Z,54.50
2022-12-19T07:27:47.320Z,52.20
2022-12-19T07:30:16.336Z,50.90
2022-12-19T07:32:45.581Z,51.10
2022-12-19T07:35:15.351Z,51.60
2022-12-19T07:37:45.481Z,47.50
2022-12-19T07:40:15.425Z,47.30
2022-12-19T07:42:48.276Z,48.80
2022-12-19T07:45:18.997Z,44.80
2022-12-19T07:47:49.266Z,46.50
2022-12-19T07:50:19.313Z,49.20
2022-12-19T07:52:49.591Z,44.20
2022-12-19T07:55:19.561Z,44.90
2022-12-19T07:57:49.927Z,45.70
2022-12-19T08:00:20.195Z,42.50
2022-12-19T08:02:50.955Z,46.10
2022-12-19T08:05:20.525Z,44.00
2022-12-19T08:07:53.932Z,50.10
2022-12-19T08:10:23.953Z,43.50
2022-12-19T08:12:54.347Z,49.50
2022-12-19T08:15:25.233Z,52.10
2022-12-19T08:17:55.452Z,56.10
2022-12-19T08:20:25.452Z,47.00
2022-12-19T08:22:55.568Z,48.20
2022-12-19T08:25:25.518Z,47.00
2022-12-19T08:27:55.411Z,47.40
2022-12-19T08:30:27.392Z,50.40
2022-12-19T08:32:57.671Z,53.50
2022-12-19T08:35:27.680Z,48.10
2022-12-19T08:37:58.561Z,51.10
2022-12-19T08:40:28.828Z,52.50
2022-12-19T08:42:58.898Z,52.10
2022-12-19T08:45:28.822Z,50.80
2022-12-19T08:47:58.789Z,50.90
2022-12-19T08:50:28.794Z,48.70
2022-12-19T08:52:57.684Z,51.70
2022-12-19T08:55:27.677Z,46.50
2022-12-19T08:57:58.380Z,45.90
2022-12-19T09:00:31.588Z,45.10
2022-12-19T09:03:00.764Z,44.70
2022-12-19T09:06:02.071Z,44.90
2022-12-19T09:08:21.380Z,47.50
2022-12-19T09:10:51.259Z,47.60
2022-12-19T09:13:20.896Z,46.90
2022-12-19T09:15:59.870Z,47.80
2022-12-19T09:18:32.137Z,47.10
2022-12-19T09:21:03.156Z,47.60
2022-12-19T09:23:40.810Z,50.50
2022-12-19T09:26:12.974Z,47.70
2022-12-19T09:28:46.110Z,45.20
2022-12-19T09:31:18.957Z,42.70
2022-12-19T09:33:53.634Z,41.70
2022-12-19T09:36:25.448Z,45.20
2022-12-19T09:38:56.762Z,41.80
2022-12-19T09:42:02.444Z,39.10
2022-12-19T09:45:10.175Z,42.00
2022-12-19T09:47:49.526Z,39.10
2022-12-19T09:50:33.995Z,36.30
2022-12-19T09:53:13.812Z,40.80
2022-12-19T09:55:45.136Z,38.50
2022-12-19T09:58:35.089Z,42.20
2022-12-19T10:01:30.064Z,43.30
2022-12-19T10:04:09.789Z,39.90
2022-12-19T10:07:07.616Z,43.60
2022-12-19T10:12:04.099Z,41.70
2022-12-19T10:12:42.399Z,41.50
2022-12-19T10:15:26.118Z,38.60
2022-12-19T10:21:17.226Z,37.90
2022-12-19T10:24:05.834Z,37.50
2022-12-19T10:26:53.039Z,38.30
2022-12-19T10:29:29.054Z,38.80
2022-12-19T10:32:14.493Z,33.70
2022-12-19T10:34:46.744Z,34.70
2022-12-19T10:37:37.633Z,38.20
2022-12-19T10:40:35.830Z,36.40
2022-12-19T10:43:25.663Z,40.90
2022-12-19T10:46:11.894Z,37.70
2022-12-19T10:48:41.847Z,31.50
2022-12-19T10:51:30.976Z,32.30
2022-12-19T10:54:01.665Z,32.20
2022-12-19T10:56:37.532Z,32.80
2022-12-19T10:59:20.292Z,31.90
2022-12-19T11:02:00.522Z,27.30
2022-12-19T11:04:37.455Z,31.80
2022-12-19T11:07:19.132Z,35.70
2022-12-19T11:09:59.928Z,31.50
2022-12-19T11:16:38.971Z,32.90
2022-12-19T11:20:38.403Z,34.30
2022-12-19T11:25:19.168Z,29.50
2022-12-19T11:29:46.980Z,28.60
2022-12-19T11:30:35.949Z,34.10
2022-12-19T11:30:43.939Z,28.90
2022-12-19T11:31:54.665Z,30.00
2022-12-19T11:33:23.308Z,30.80
2022-12-19T11:35:56.750Z,32.00
2022-12-19T11:38:39.844Z,28.80
2022-12-19T11:41:22.988Z,31.30
2022-12-19T11:43:59.357Z,31.50
2022-12-19T11:46:48.591Z,32.00
2022-12-19T11:49:36.461Z,31.80
2022-12-19T11:53:02.853Z,31.30
2022-12-19T11:55:28.747Z,34.20
2022-12-19T11:57:58.827Z,32.60
2022-12-19T12:00:30.434Z,35.30
2022-12-19T12:03:28.388Z,32.00
2022-12-19T12:10:32.809Z,45.40
2022-12-19T12:16:43.735Z,57.90
2022-12-19T12:25:48.645Z,39.40
2022-12-19T12:31:01.112Z,33.50
2022-12-19T12:31:11.834Z,34.90
2022-12-19T12:31:45.500Z,36.40
2022-12-19T12:32:05.582Z,33.00
2022-12-19T12:35:33.640Z,36.80
2022-12-19T12:38:23.943Z,34.80
2022-12-19T12:41:42.467Z,34.00
2022-12-19T12:44:14.666Z,35.50
2022-12-19T12:47:02.100Z,34.50
2022-12-19T12:49:46.794Z,34.00
2022-12-19T12:52:27.313Z,35.20
2022-12-19T12:54:59.060Z,36.50
2022-12-19T12:57:29.024Z,37.40
2022-12-19T13:00:26.125Z,36.10
2022-12-19T13:03:05.557Z,38.20
2022-12-19T13:06:02.523Z,37.60
2022-12-19T13:08:49.227Z,40.30
2022-12-19T13:11:42.015Z,40.00
2022-12-19T13:14:35.141Z,37.10
2022-12-19T13:17:09.163Z,41.00
2022-12-19T13:19:54.367Z,44.60
2022-12-19T13:22:32.778Z,45.80
2022-12-19T13:25:03.251Z,49.00
2022-12-19T13:27:41.913Z,42.30
2022-12-19T13:30:17.704Z,39.30
2022-12-19T13:32:49.315Z,39.50
2022-12-19T13:35:59.401Z,42.70
2022-12-19T13:39:57.350Z,39.50
2022-12-19T13:41:49.605Z,40.00
2022-12-19T13:44:22.684Z,38.60
2022-12-19T13:46:55.661Z,37.80
2022-12-19T13:49:35.141Z,39.10
2022-12-19T13:52:07.475Z,38.90
2022-12-19T13:54:52.359Z,40.00
2022-12-19T13:57:31.369Z,38.20
2022-12-19T14:00:08.104Z,44.10
2022-12-19T14:02:49.440Z,37.30
2022-12-19T14:06:16.781Z,39.60
2022-12-19T14:08:28.601Z,41.00
2022-12-19T14:11:33.933Z,38.60
2022-12-19T14:14:22.052Z,35.40
2022-12-19T14:17:14.209Z,38.70
2022-12-19T14:19:47.486Z,44.00
2022-12-19T14:22:25.480Z,75.00
2022-12-19T14:26:06.536Z,44.00
2022-12-19T14:28:24.867Z,42.30
2022-12-19T14:31:00.153Z,44.60
2022-12-19T14:33:58.406Z,42.10
2022-12-19T14:36:33.227Z,44.10
2022-12-19T14:39:22.536Z,39.30
2022-12-19T14:43:57.212Z,48.20
2022-12-19T14:53:17.399Z,43.60
2022-12-19T14:54:05.914Z,47.20
2022-12-19T14:54:35.866Z,47.40
2022-12-19T14:58:51.072Z,48.10
2022-12-19T15:01:10.430Z,44.20
2022-12-19T15:03:26.036Z,47.80
2022-12-19T15:07:05.582Z,45.70
2022-12-19T15:10:57.602Z,41.20
2022-12-19T15:14:56.945Z,40.00
2022-12-19T15:16:07.895Z,38.60
2022-12-19T15:18:42.918Z,41.60
2022-12-19T15:21:15.093Z,43.60
2022-12-19T15:23:46.582Z,42.30
2022-12-19T15:26:20.245Z,46.60
2022-12-19T15:28:52.130Z,43.10
2022-12-19T15:31:43.523Z,40.90
2022-12-19T15:34:40.121Z,42.00
2022-12-19T15:37:14.238Z,52.60
2022-12-19T15:39:45.109Z,39.50
2022-12-19T15:42:25.080Z,39.60
2022-12-19T15:44:56.878Z,40.80
2022-12-19T15:47:35.715Z,40.40
2022-12-19T15:50:21.640Z,42.50
2022-12-19T15:52:55.589Z,40.30
2022-12-19T15:55:29.604Z,40.70
2022-12-19T15:58:06.769Z,39.80
2022-12-19T16:00:37.447Z,42.60
2022-12-19T16:03:23.802Z,38.50
2022-12-19T16:05:55.237Z,42.90
2022-12-19T16:08:26.713Z,41.80
2022-12-19T16:11:01.688Z,39.60
2022-12-19T16:13:35.809Z,40.70
2022-12-19T16:16:13.005Z,41.60
2022-12-19T16:18:46.206Z,39.80
2022-12-19T16:21:33.172Z,41.80
2022-12-19T16:24:05.188Z,40.80
2022-12-19T16:26:38.460Z,40.60
2022-12-19T16:29:29.338Z,48.00
2022-12-19T16:32:01.467Z,50.60
2022-12-19T16:34:32.091Z,43.30
2022-12-19T16:37:01.946Z,42.60
2022-12-19T16:39:31.879Z,44.80
2022-12-19T16:42:00.675Z,65.60
2022-12-19T16:44:34.147Z,57.30
2022-12-19T16:47:04.388Z,56.90
2022-12-19T16:49:34.608Z,99.40
2022-12-19T16:52:04.970Z,50.80
2022-12-19T16:54:35.219Z,58.30
2022-12-19T16:57:07.653Z,78.90
2022-12-19T16:59:40.662Z,89.70
2022-12-19T17:02:46.265Z,88.20
2022-12-19T17:05:39.816Z,83.40
2022-12-19T17:08:15.808Z,70.90
2022-12-19T17:10:46.984Z,94.00
2022-12-19T17:13:21.555Z,75.40
2022-12-19T17:15:57.036Z,88.90
2022-12-19T17:18:32.728Z,85.30
2022-12-19T17:21:03.213Z,84.50
2022-12-19T17:23:33.419Z,82.50
2022-12-19T17:26:02.759Z,90.50
2022-12-19T17:28:32.660Z,79.60
2022-12-19T17:31:07.438Z,87.10
2022-12-19T17:33:39.966Z,81.90
2022-12-19T17:36:15.431Z,82.70
2022-12-19T17:38:49.115Z,110.50
2022-12-19T17:41:19.817Z,112.60
2022-12-19T17:43:50.381Z,121.40
2022-12-19T17:46:22.997Z,122.00
2022-12-19T17:48:54.834Z,117.10
2022-12-19T17:51:25.500Z,82.60
2022-12-19T17:53:55.852Z,80.50
2022-12-19T17:56:26.244Z,98.10
2022-12-19T17:58:56.803Z,121.20
2022-12-19T18:01:35.667Z,130.30
2022-12-19T18:04:05.689Z,106.10
2022-12-19T18:06:36.849Z,91.00
2022-12-19T18:09:05.869Z,88.60
2022-12-19T18:11:41.429Z,120.00
2022-12-19T18:14:12.471Z,150.40
2022-12-19T18:16:43.370Z,160.30
2022-12-19T18:19:19.306Z,144.40
2022-12-19T18:21:49.553Z,145.40
2022-12-19T18:24:19.536Z,140.00
2022-12-19T18:26:49.726Z,100.60
2022-12-19T18:29:19.936Z,107.20
2022-12-19T18:31:51.083Z,122.20
2022-12-19T18:34:25.134Z,193.10
2022-12-19T18:36:55.519Z,158.90
2022-12-19T18:39:27.926Z,180.50
2022-12-19T18:41:57.955Z,154.10
2022-12-19T18:44:27.901Z,152.70
2022-12-19T18:46:57.717Z,162.80
2022-12-19T18:49:28.588Z,165.10
2022-12-19T18:51:57.357Z,166.50
2022-12-19T18:54:29.459Z,154.20
2022-12-19T18:56:59.652Z,139.40
2022-12-19T18:59:31.781Z,147.10
2022-12-19T19:02:01.825Z,241.30
2022-12-19T19:04:30.836Z,196.40
2022-12-19T19:07:18.173Z,165.80
2022-12-19T19:09:47.803Z,168.00
2022-12-19T19:12:40.805Z,148.00
2022-12-19T19:15:11.422Z,133.50
2022-12-19T19:17:43.126Z,149.60
2022-12-19T19:20:11.974Z,142.20
2022-12-19T19:22:42.087Z,149.60
2022-12-19T19:25:12.793Z,141.40
2022-12-19T19:27:43.134Z,135.70
2022-12-19T19:30:14.860Z,132.30
2022-12-19T19:32:50.213Z,151.30
2022-12-19T19:35:22.454Z,186.90
2022-12-19T19:37:53.892Z,152.10
2022-12-19T19:40:23.255Z,135.90
2022-12-19T19:42:53.686Z,161.30
2022-12-19T19:45:23.923Z,144.50
2022-12-19T19:47:54.745Z,138.30
2022-12-19T19:50:25.079Z,152.70
2022-12-19T19:52:54.511Z,136.30
2022-12-19T19:55:24.598Z,132.80
2022-12-19T19:57:55.739Z,144.10
2022-12-19T20:00:26.001Z,138.60
2022-12-19T20:02:56.220Z,136.90
2022-12-19T20:05:26.415Z,207.40
2022-12-19T20:07:56.840Z,134.00
2022-12-19T20:10:27.016Z,118.80
2022-12-19T20:12:56.999Z,121.50
2022-12-19T20:15:27.031Z,120.90
2022-12-19T20:17:57.598Z,107.30
2022-12-19T20:20:27.659Z,99.70
2022-12-19T20:22:57.732Z,100.10
2022-12-19T20:25:27.639Z,101.80
2022-12-19T20:27:57.416Z,118.00
2022-12-19T20:30:27.399Z,169.90
2022-12-19T20:32:57.717Z,126.60
2022-12-19T20:35:27.557Z,95.30
2022-12-19T20:37:57.120Z,92.90
2022-12-19T20:40:27.104Z,89.60
2022-12-19T20:42:57.195Z,90.50
2022-12-19T20:45:27.060Z,97.80
2022-12-19T20:47:57.096Z,95.70
2022-12-19T20:50:25.846Z,102.10
2022-12-19T20:52:54.708Z,96.20
2022-12-19T20:55:24.658Z,95.70
2022-12-19T20:57:54.871Z,104.40
2022-12-19T21:00:25.127Z,129.90
2022-12-19T21:05:54.201Z,111.60
2022-12-19T21:08:25.186Z,132.00
2022-12-19T21:10:55.792Z,131.20
2022-12-19T21:13:25.941Z,108.20
2022-12-19T21:15:59.199Z,103.40
2022-12-19T21:18:30.836Z,96.50
2022-12-19T21:21:02.082Z,108.00
2022-12-19T21:23:32.428Z,119.30
2022-12-19T21:26:04.643Z,100.00
2022-12-19T21:28:34.961Z,94.70
2022-12-19T21:31:19.165Z,75.70
2022-12-19T21:33:51.501Z,70.50
2022-12-19T21:36:24.053Z,97.00
2022-12-19T21:38:56.679Z,85.80
2022-12-19T21:41:27.702Z,87.20
2022-12-19T21:44:00.988Z,83.70
2022-12-19T21:46:35.650Z,77.10
2022-12-19T21:49:07.068Z,74.50
2022-12-19T21:51:37.301Z,72.20
2022-12-19T21:54:07.381Z,75.50
2022-12-19T21:56:39.466Z,75.00
2022-12-19T21:59:14.928Z,76.00
2022-12-19T22:01:45.694Z,81.80
2022-12-19T22:04:21.528Z,78.40
2022-12-19T22:06:52.658Z,77.30
2022-12-19T22:09:24.034Z,93.00
2022-12-19T22:11:54.299Z,79.10
2022-12-19T22:14:24.614Z,79.00
2022-12-19T22:16:55.569Z,103.20
2022-12-19T22:19:25.947Z,101.10
2022-12-19T22:21:56.189Z,89.50
2022-12-19T22:24:26.253Z,80.10
2022-12-19T22:26:56.629Z,70.40
2022-12-19T22:29:26.803Z,67.90
2022-12-19T22:31:56.391Z,70.80
2022-12-19T22:34:26.704Z,71.20
2022-12-19T22:36:56.284Z,66.50
2022-12-19T22:39:26.272Z,69.80
2022-12-19T22:41:56.199Z,63.40
2022-12-19T22:44:25.939Z,62.90
2022-12-19T22:46:55.493Z,61.10
2022-12-19T22:49:26.105Z,62.30
2022-12-19T22:51:54.795Z,65.30
2022-12-19T22:54:24.687Z,62.90
2022-12-19T22:56:54.871Z,62.60
2022-12-19T22:59:25.076Z,61.50
2022-12-19T23:01:54.985Z,24.20
2022-12-19T23:04:26.339Z,62.40
2022-12-19T23:06:56.675Z,56.80
2022-12-19T23:09:28.010Z,60.80
2022-12-19T23:11:58.339Z,65.80
2022-12-19T23:14:28.541Z,58.90
2022-12-19T23:16:58.457Z,56.20
2022-12-19T23:19:28.823Z,57.90
2022-12-19T23:21:59.057Z,54.50
2022-12-19T23:24:29.284Z,44.30
2022-12-19T23:26:59.277Z,49.10
2022-12-19T23:29:29.458Z,47.70
2022-12-19T23:32:00.159Z,48.00
2022-12-19T23:34:30.079Z,60.90
2022-12-19T23:37:10.805Z,69.20
2022-12-19T23:39:41.764Z,65.20
2022-12-19T23:42:11.969Z,54.70
2022-12-19T23:44:42.152Z,59.00
2022-12-19T23:47:12.070Z,59.90
2022-12-19T23:49:42.072Z,56.40
2022-12-19T23:52:11.500Z,52.90
2022-12-19T23:54:41.381Z,46.30
2022-12-19T23:57:11.449Z,48.60
2022-12-19T23:59:41.386Z,46.40
